sensor_id;sensor_type;location;lat;lon;timestamp;P1;P2;P0
66195;PMS7003;53000;45.182;5.736;2022-08-05T00:01:23;11.25;11.25;9.50
66195;PMS7003;53000;45.182;5.736;2022-08-05T00:03:49;11.00;10.25;8.75
66195;PMS7003;53000;45.182;5.736;2022-08-05T00:06:15;11.00;11.00;9.25
66195;PMS7003;53000;45.182;5.736;2022-08-05T00:08:41;10.00;10.00;9.25
66195;PMS7003;53000;45.182;5.736;2022-08-05T00:11:08;13.75;12.00;10.00
66195;PMS7003;53000;45.182;5.736;2022-08-05T00:13:36;13.25;12.25;9.75
66195;PMS7003;53000;45.182;5.736;2022-08-05T00:16:03;12.75;12.00;10.00
66195;PMS7003;53000;45.182;5.736;2022-08-05T00:18:29;11.25;11.25;9.75
66195;PMS7003;53000;45.182;5.736;2022-08-05T00:20:55;11.00;11.00;9.00
66195;PMS7003;53000;45.182;5.736;2022-08-05T00:23:21;12.75;12.00;10.25
66195;PMS7003;53000;45.182;5.736;2022-08-05T00:25:47;11.50;11.00;9.25
66195;PMS7003;53000;45.182;5.736;2022-08-05T00:28:13;14.00;11.75;9.25
66195;PMS7003;53000;45.182;5.736;2022-08-05T00:30:38;13.00;11.75;10.00
66195;PMS7003;53000;45.182;5.736;2022-08-05T00:33:04;12.00;12.00;10.00
66195;PMS7003;53000;45.182;5.736;2022-08-05T00:35:30;13.25;13.25;10.75
66195;PMS7003;53000;45.182;5.736;2022-08-05T00:37:55;11.50;11.50;9.75
66195;PMS7003;53000;45.182;5.736;2022-08-05T00:40:21;12.00;12.00;10.00
66195;PMS7003;53000;45.182;5.736;2022-08-05T00:42:48;15.00;15.00;12.00
66195;PMS7003;53000;45.182;5.736;2022-08-05T00:45:13;11.75;10.25;9.00
66195;PMS7003;53000;45.182;5.736;2022-08-05T00:47:39;12.50;12.50;11.00
66195;PMS7003;53000;45.182;5.736;2022-08-05T00:50:05;11.00;11.00;10.00
66195;PMS7003;53000;45.182;5.736;2022-08-05T00:52:31;13.25;12.25;10.00
66195;PMS7003;53000;45.182;5.736;2022-08-05T00:54:56;12.50;12.50;10.25
66195;PMS7003;53000;45.182;5.736;2022-08-05T00:57:22;11.50;9.75;8.75
66195;PMS7003;53000;45.182;5.736;2022-08-05T00:59:47;13.25;13.25;10.50
66195;PMS7003;53000;45.182;5.736;2022-08-05T01:02:13;13.00;11.75;10.25
66195;PMS7003;53000;45.182;5.736;2022-08-05T01:04:38;14.00;13.50;11.00
66195;PMS7003;53000;45.182;5.736;2022-08-05T01:07:04;12.00;12.00;10.00
66195;PMS7003;53000;45.182;5.736;2022-08-05T01:09:29;11.75;11.75;9.75
66195;PMS7003;53000;45.182;5.736;2022-08-05T01:11:56;12.50;11.75;9.25
66195;PMS7003;53000;45.182;5.736;2022-08-05T01:14:28;13.00;13.00;11.00
66195;PMS7003;53000;45.182;5.736;2022-08-05T01:17:01;11.50;11.50;10.00
66195;PMS7003;53000;45.182;5.736;2022-08-05T01:19:34;12.75;11.75;10.00
66195;PMS7003;53000;45.182;5.736;2022-08-05T01:24:49;12.25;11.50;10.50
66195;PMS7003;53000;45.182;5.736;2022-08-05T01:27:45;12.75;12.50;10.75
66195;PMS7003;53000;45.182;5.736;2022-08-05T01:30:12;13.25;13.25;11.00
66195;PMS7003;53000;45.182;5.736;2022-08-05T01:32:40;10.75;9.50;8.25
66195;PMS7003;53000;45.182;5.736;2022-08-05T01:35:10;12.75;12.75;10.75
66195;PMS7003;53000;45.182;5.736;2022-08-05T01:37:53;12.50;12.50;10.25
66195;PMS7003;53000;45.182;5.736;2022-08-05T01:40:22;13.00;12.00;10.00
66195;PMS7003;53000;45.182;5.736;2022-08-05T01:42:52;13.00;12.75;10.00
66195;PMS7003;53000;45.182;5.736;2022-08-05T01:45:19;11.00;10.00;8.75
66195;PMS7003;53000;45.182;5.736;2022-08-05T01:47:47;14.75;13.00;10.25
66195;PMS7003;53000;45.182;5.736;2022-08-05T01:50:21;13.75;13.00;10.75
66195;PMS7003;53000;45.182;5.736;2022-08-05T01:52:50;12.25;12.25;10.50
66195;PMS7003;53000;45.182;5.736;2022-08-05T01:55:19;10.50;9.75;8.00
66195;PMS7003;53000;45.182;5.736;2022-08-05T01:57:48;9.75;9.25;8.00
66195;PMS7003;53000;45.182;5.736;2022-08-05T02:00:16;12.75;12.75;10.00
66195;PMS7003;53000;45.182;5.736;2022-08-05T02:02:44;13.25;13.00;9.75
66195;PMS7003;53000;45.182;5.736;2022-08-05T02:05:16;12.25;11.50;9.00
66195;PMS7003;53000;45.182;5.736;2022-08-05T02:07:44;12.00;12.00;9.75
66195;PMS7003;53000;45.182;5.736;2022-08-05T02:10:10;12.50;12.50;10.50
66195;PMS7003;53000;45.182;5.736;2022-08-05T02:12:43;11.00;11.00;9.00
66195;PMS7003;53000;45.182;5.736;2022-08-05T02:15:23;12.25;12.25;9.75
66195;PMS7003;53000;45.182;5.736;2022-08-05T02:18:02;14.50;13.00;11.25
66195;PMS7003;53000;45.182;5.736;2022-08-05T02:20:39;12.00;12.00;10.50
66195;PMS7003;53000;45.182;5.736;2022-08-05T02:23:12;14.25;13.75;10.75
66195;PMS7003;53000;45.182;5.736;2022-08-05T02:25:40;10.25;10.00;9.25
66195;PMS7003;53000;45.182;5.736;2022-08-05T02:28:08;12.00;12.00;9.75
66195;PMS7003;53000;45.182;5.736;2022-08-05T02:30:41;10.50;10.00;9.25
66195;PMS7003;53000;45.182;5.736;2022-08-05T02:33:09;12.00;12.00;10.00
66195;PMS7003;53000;45.182;5.736;2022-08-05T02:35:37;10.50;10.50;8.00
66195;PMS7003;53000;45.182;5.736;2022-08-05T02:38:05;12.25;11.25;10.25
66195;PMS7003;53000;45.182;5.736;2022-08-05T02:40:32;16.50;13.50;11.50
66195;PMS7003;53000;45.182;5.736;2022-08-05T02:42:58;10.25;10.00;8.25
66195;PMS7003;53000;45.182;5.736;2022-08-05T02:45:25;12.75;12.75;10.00
66195;PMS7003;53000;45.182;5.736;2022-08-05T02:47:52;13.00;12.25;11.00
66195;PMS7003;53000;45.182;5.736;2022-08-05T02:50:20;12.25;12.25;10.50
66195;PMS7003;53000;45.182;5.736;2022-08-05T02:52:47;13.25;12.00;10.25
66195;PMS7003;53000;45.182;5.736;2022-08-05T02:55:14;13.00;12.50;11.00
66195;PMS7003;53000;45.182;5.736;2022-08-05T02:57:40;11.50;11.25;10.00
66195;PMS7003;53000;45.182;5.736;2022-08-05T03:00:06;13.00;13.00;9.00
66195;PMS7003;53000;45.182;5.736;2022-08-05T03:02:35;10.00;10.00;9.00
66195;PMS7003;53000;45.182;5.736;2022-08-05T03:05:03;12.75;12.25;10.75
66195;PMS7003;53000;45.182;5.736;2022-08-05T03:07:33;12.00;12.00;10.00
66195;PMS7003;53000;45.182;5.736;2022-08-05T03:09:59;16.25;15.75;12.00
66195;PMS7003;53000;45.182;5.736;2022-08-05T03:12:31;12.25;12.25;10.00
66195;PMS7003;53000;45.182;5.736;2022-08-05T03:14:57;13.00;12.00;11.00
66195;PMS7003;53000;45.182;5.736;2022-08-05T03:17:23;12.25;12.25;10.50
66195;PMS7003;53000;45.182;5.736;2022-08-05T03:19:48;11.00;11.00;10.00
66195;PMS7003;53000;45.182;5.736;2022-08-05T03:22:14;12.25;12.25;10.00
66195;PMS7003;53000;45.182;5.736;2022-08-05T03:24:43;11.25;11.25;9.50
66195;PMS7003;53000;45.182;5.736;2022-08-05T03:27:09;13.00;12.50;11.25
66195;PMS7003;53000;45.182;5.736;2022-08-05T03:29:36;10.00;10.00;8.50
66195;PMS7003;53000;45.182;5.736;2022-08-05T03:32:02;11.25;10.25;8.25
66195;PMS7003;53000;45.182;5.736;2022-08-05T03:34:30;13.00;13.00;10.00
66195;PMS7003;53000;45.182;5.736;2022-08-05T03:36:56;15.00;12.50;10.50
66195;PMS7003;53000;45.182;5.736;2022-08-05T03:39:22;14.50;14.50;11.50
66195;PMS7003;53000;45.182;5.736;2022-08-05T03:41:47;13.75;13.75;11.75
66195;PMS7003;53000;45.182;5.736;2022-08-05T03:44:12;14.25;13.75;12.00
66195;PMS7003;53000;45.182;5.736;2022-08-05T03:46:38;13.25;12.25;10.75
66195;PMS7003;53000;45.182;5.736;2022-08-05T03:49:03;13.00;12.00;11.00
66195;PMS7003;53000;45.182;5.736;2022-08-05T03:51:29;11.25;10.75;9.00
66195;PMS7003;53000;45.182;5.736;2022-08-05T03:56:37;16.00;13.00;11.00
66195;PMS7003;53000;45.182;5.736;2022-08-05T03:59:09;16.50;15.50;12.50
66195;PMS7003;53000;45.182;5.736;2022-08-05T04:01:41;13.25;10.50;9.25
66195;PMS7003;53000;45.182;5.736;2022-08-05T04:04:09;14.50;14.50;11.25
66195;PMS7003;53000;45.182;5.736;2022-08-05T04:06:37;13.25;12.50;10.25
66195;PMS7003;53000;45.182;5.736;2022-08-05T04:09:05;15.00;15.00;11.00
66195;PMS7003;53000;45.182;5.736;2022-08-05T04:11:31;14.50;14.00;10.00
66195;PMS7003;53000;45.182;5.736;2022-08-05T04:14:00;13.50;11.50;9.50
66195;PMS7003;53000;45.182;5.736;2022-08-05T04:16:27;16.00;15.00;11.50
66195;PMS7003;53000;45.182;5.736;2022-08-05T04:18:53;14.75;14.25;10.25
66195;PMS7003;53000;45.182;5.736;2022-08-05T04:21:18;13.50;13.50;9.50
66195;PMS7003;53000;45.182;5.736;2022-08-05T04:23:43;15.00;12.00;9.00
66195;PMS7003;53000;45.182;5.736;2022-08-05T04:26:09;17.00;15.75;13.25
66195;PMS7003;53000;45.182;5.736;2022-08-05T04:28:35;13.25;13.25;11.25
66195;PMS7003;53000;45.182;5.736;2022-08-05T04:31:00;13.50;12.75;11.75
66195;PMS7003;53000;45.182;5.736;2022-08-05T04:33:26;16.00;16.00;13.25
66195;PMS7003;53000;45.182;5.736;2022-08-05T04:35:52;13.00;13.00;10.00
66195;PMS7003;53000;45.182;5.736;2022-08-05T04:38:17;13.50;13.50;11.75
66195;PMS7003;53000;45.182;5.736;2022-08-05T04:40:42;13.50;11.75;10.50
66195;PMS7003;53000;45.182;5.736;2022-08-05T04:43:08;12.25;11.50;9.75
66195;PMS7003;53000;45.182;5.736;2022-08-05T04:45:33;13.00;12.00;10.25
66195;PMS7003;53000;45.182;5.736;2022-08-05T04:48:06;14.75;14.75;11.25
66195;PMS7003;53000;45.182;5.736;2022-08-05T04:50:46;14.00;12.25;11.25
66195;PMS7003;53000;45.182;5.736;2022-08-05T04:53:14;14.00;12.50;11.00
66195;PMS7003;53000;45.182;5.736;2022-08-05T04:55:41;13.00;13.00;10.25
66195;PMS7003;53000;45.182;5.736;2022-08-05T04:58:08;14.25;13.25;10.00
66195;PMS7003;53000;45.182;5.736;2022-08-05T05:00:36;14.00;12.25;9.50
66195;PMS7003;53000;45.182;5.736;2022-08-05T05:03:03;13.00;13.00;10.50
66195;PMS7003;53000;45.182;5.736;2022-08-05T05:05:29;17.25;15.50;11.75
66195;PMS7003;53000;45.182;5.736;2022-08-05T05:07:58;13.00;12.75;10.75
66195;PMS7003;53000;45.182;5.736;2022-08-05T05:10:25;13.00;12.00;10.50
66195;PMS7003;53000;45.182;5.736;2022-08-05T05:12:51;14.00;13.00;11.00
66195;PMS7003;53000;45.182;5.736;2022-08-05T05:15:16;14.00;13.00;10.75
66195;PMS7003;53000;45.182;5.736;2022-08-05T05:17:42;14.00;14.00;11.25
66195;PMS7003;53000;45.182;5.736;2022-08-05T05:20:08;13.75;13.75;10.25
66195;PMS7003;53000;45.182;5.736;2022-08-05T05:22:35;12.75;12.75;11.00
66195;PMS7003;53000;45.182;5.736;2022-08-05T05:25:00;16.50;14.00;11.75
66195;PMS7003;53000;45.182;5.736;2022-08-05T05:27:27;13.00;13.00;11.25
66195;PMS7003;53000;45.182;5.736;2022-08-05T05:29:53;12.00;12.00;9.75
66195;PMS7003;53000;45.182;5.736;2022-08-05T05:32:18;12.25;12.25;10.25
66195;PMS7003;53000;45.182;5.736;2022-08-05T05:34:44;14.50;14.50;12.25
66195;PMS7003;53000;45.182;5.736;2022-08-05T05:37:10;14.75;13.50;11.00
66195;PMS7003;53000;45.182;5.736;2022-08-05T05:39:36;13.00;13.00;10.25
66195;PMS7003;53000;45.182;5.736;2022-08-05T05:42:02;13.00;13.00;11.75
66195;PMS7003;53000;45.182;5.736;2022-08-05T05:44:27;14.25;14.00;11.50
66195;PMS7003;53000;45.182;5.736;2022-08-05T05:46:52;13.75;13.25;12.00
66195;PMS7003;53000;45.182;5.736;2022-08-05T05:49:18;12.25;10.75;9.75
66195;PMS7003;53000;45.182;5.736;2022-08-05T05:51:43;13.75;12.00;10.50
66195;PMS7003;53000;45.182;5.736;2022-08-05T05:54:08;14.25;12.25;10.50
66195;PMS7003;53000;45.182;5.736;2022-08-05T05:56:34;16.25;13.50;11.00
66195;PMS7003;53000;45.182;5.736;2022-08-05T05:59:05;15.25;13.75;12.00
66195;PMS7003;53000;45.182;5.736;2022-08-05T06:01:32;13.25;11.00;9.75
66195;PMS7003;53000;45.182;5.736;2022-08-05T06:04:01;15.50;15.00;11.00
66195;PMS7003;53000;45.182;5.736;2022-08-05T06:06:27;13.00;12.50;10.25
66195;PMS7003;53000;45.182;5.736;2022-08-05T06:08:53;14.00;13.00;10.00
66195;PMS7003;53000;45.182;5.736;2022-08-05T06:11:19;15.00;15.00;12.00
66195;PMS7003;53000;45.182;5.736;2022-08-05T06:13:44;12.25;12.25;11.25
66195;PMS7003;53000;45.182;5.736;2022-08-05T06:16:09;13.75;13.00;10.00
66195;PMS7003;53000;45.182;5.736;2022-08-05T06:18:35;14.25;14.25;12.75
66195;PMS7003;53000;45.182;5.736;2022-08-05T06:21:01;13.25;13.25;11.00
66195;PMS7003;53000;45.182;5.736;2022-08-05T06:23:27;14.75;13.50;12.50
66195;PMS7003;53000;45.182;5.736;2022-08-05T06:25:53;12.75;12.75;10.00
66195;PMS7003;53000;45.182;5.736;2022-08-05T06:28:18;14.75;14.75;12.00
66195;PMS7003;53000;45.182;5.736;2022-08-05T06:30:44;16.75;14.50;12.00
66195;PMS7003;53000;45.182;5.736;2022-08-05T06:33:09;16.50;14.00;11.00
66195;PMS7003;53000;45.182;5.736;2022-08-05T06:35:34;17.25;15.75;13.25
66195;PMS7003;53000;45.182;5.736;2022-08-05T06:38:00;14.25;14.00;12.00
66195;PMS7003;53000;45.182;5.736;2022-08-05T06:40:25;16.25;16.25;13.00
66195;PMS7003;53000;45.182;5.736;2022-08-05T06:42:50;14.00;13.00;8.25
66195;PMS7003;53000;45.182;5.736;2022-08-05T06:45:16;16.75;15.75;12.50
66195;PMS7003;53000;45.182;5.736;2022-08-05T06:47:41;12.75;11.75;8.75
66195;PMS7003;53000;45.182;5.736;2022-08-05T06:50:07;14.00;14.00;12.00
66195;PMS7003;53000;45.182;5.736;2022-08-05T06:52:32;14.75;14.75;12.00
66195;PMS7003;53000;45.182;5.736;2022-08-05T06:54:58;17.75;17.00;13.00
66195;PMS7003;53000;45.182;5.736;2022-08-05T06:57:23;12.25;11.75;9.75
66195;PMS7003;53000;45.182;5.736;2022-08-05T06:59:49;16.50;15.50;12.00
66195;PMS7003;53000;45.182;5.736;2022-08-05T07:02:14;16.00;15.00;12.25
66195;PMS7003;53000;45.182;5.736;2022-08-05T07:04:39;16.75;15.00;12.50
66195;PMS7003;53000;45.182;5.736;2022-08-05T07:07:05;17.75;14.50;12.50
66195;PMS7003;53000;45.182;5.736;2022-08-05T07:09:30;15.50;14.25;12.25
66195;PMS7003;53000;45.182;5.736;2022-08-05T07:11:55;14.50;13.75;11.25
66195;PMS7003;53000;45.182;5.736;2022-08-05T07:14:21;14.75;14.75;11.25
66195;PMS7003;53000;45.182;5.736;2022-08-05T07:17:25;19.00;16.00;12.25
66195;PMS7003;53000;45.182;5.736;2022-08-05T07:19:50;14.75;14.25;12.50
66195;PMS7003;53000;45.182;5.736;2022-08-05T07:22:18;16.25;16.00;13.75
66195;PMS7003;53000;45.182;5.736;2022-08-05T07:24:46;14.25;14.00;11.25
66195;PMS7003;53000;45.182;5.736;2022-08-05T07:27:11;15.75;13.25;11.25
66195;PMS7003;53000;45.182;5.736;2022-08-05T07:29:37;16.50;13.50;11.00
66195;PMS7003;53000;45.182;5.736;2022-08-05T07:32:02;15.00;14.00;10.50
66195;PMS7003;53000;45.182;5.736;2022-08-05T07:34:28;16.25;13.50;10.25
66195;PMS7003;53000;45.182;5.736;2022-08-05T07:36:53;13.75;13.75;11.75
66195;PMS7003;53000;45.182;5.736;2022-08-05T07:39:18;15.50;14.25;11.00
66195;PMS7003;53000;45.182;5.736;2022-08-05T07:41:44;13.25;12.75;11.50
66195;PMS7003;53000;45.182;5.736;2022-08-05T07:44:09;12.50;12.50;10.00
66195;PMS7003;53000;45.182;5.736;2022-08-05T07:46:34;8.50;8.00;7.00
66195;PMS7003;53000;45.182;5.736;2022-08-05T07:49:00;13.50;13.50;11.50
66195;PMS7003;53000;45.182;5.736;2022-08-05T07:51:27;17.50;15.25;11.25
66195;PMS7003;53000;45.182;5.736;2022-08-05T07:53:52;15.50;15.50;11.50
66195;PMS7003;53000;45.182;5.736;2022-08-05T07:56:18;15.25;15.00;12.25
66195;PMS7003;53000;45.182;5.736;2022-08-05T07:58:43;14.00;13.00;10.50
66195;PMS7003;53000;45.182;5.736;2022-08-05T08:01:08;13.75;13.75;11.00
66195;PMS7003;53000;45.182;5.736;2022-08-05T08:03:34;10.50;10.50;8.25
66195;PMS7003;53000;45.182;5.736;2022-08-05T08:05:59;15.00;14.75;12.50
66195;PMS7003;53000;45.182;5.736;2022-08-05T08:08:24;13.75;13.75;11.25
66195;PMS7003;53000;45.182;5.736;2022-08-05T08:10:50;9.75;9.75;8.25
66195;PMS7003;53000;45.182;5.736;2022-08-05T08:13:15;13.00;13.00;10.25
66195;PMS7003;53000;45.182;5.736;2022-08-05T08:15:41;14.50;14.50;12.00
66195;PMS7003;53000;45.182;5.736;2022-08-05T08:18:06;12.50;12.50;10.25
66195;PMS7003;53000;45.182;5.736;2022-08-05T08:20:32;13.00;13.00;10.00
66195;PMS7003;53000;45.182;5.736;2022-08-05T08:22:57;11.50;11.50;9.25
66195;PMS7003;53000;45.182;5.736;2022-08-05T08:25:24;13.50;13.50;11.00
66195;PMS7003;53000;45.182;5.736;2022-08-05T08:27:52;13.75;12.75;11.25
66195;PMS7003;53000;45.182;5.736;2022-08-05T08:30:18;12.25;11.75;10.00
66195;PMS7003;53000;45.182;5.736;2022-08-05T08:32:43;11.00;11.00;9.50
66195;PMS7003;53000;45.182;5.736;2022-08-05T08:35:09;13.25;12.50;10.50
66195;PMS7003;53000;45.182;5.736;2022-08-05T08:37:34;12.50;11.00;10.50
66195;PMS7003;53000;45.182;5.736;2022-08-05T08:40:00;11.75;11.75;10.75
66195;PMS7003;53000;45.182;5.736;2022-08-05T08:42:25;16.75;13.75;11.75
66195;PMS7003;53000;45.182;5.736;2022-08-05T08:44:54;13.50;13.50;11.50
66195;PMS7003;53000;45.182;5.736;2022-08-05T08:47:22;14.50;13.25;10.75
66195;PMS7003;53000;45.182;5.736;2022-08-05T08:49:50;11.75;10.50;9.00
66195;PMS7003;53000;45.182;5.736;2022-08-05T08:52:24;10.75;10.75;9.00
66195;PMS7003;53000;45.182;5.736;2022-08-05T08:54:54;12.00;12.00;10.00
66195;PMS7003;53000;45.182;5.736;2022-08-05T08:57:20;13.50;13.50;10.75
66195;PMS7003;53000;45.182;5.736;2022-08-05T08:59:46;17.50;16.00;12.00
66195;PMS7003;53000;45.182;5.736;2022-08-05T09:02:13;10.75;10.75;9.50
66195;PMS7003;53000;45.182;5.736;2022-08-05T09:04:38;15.00;15.00;12.25
66195;PMS7003;53000;45.182;5.736;2022-08-05T09:07:04;13.50;13.50;10.00
66195;PMS7003;53000;45.182;5.736;2022-08-05T09:09:34;13.00;11.25;9.75
66195;PMS7003;53000;45.182;5.736;2022-08-05T09:12:02;13.00;13.00;10.50
66195;PMS7003;53000;45.182;5.736;2022-08-05T09:14:30;12.00;11.75;10.50
66195;PMS7003;53000;45.182;5.736;2022-08-05T09:16:56;14.50;14.00;11.25
66195;PMS7003;53000;45.182;5.736;2022-08-05T09:19:23;14.25;13.00;11.00
66195;PMS7003;53000;45.182;5.736;2022-08-05T09:21:49;13.75;13.75;11.75
66195;PMS7003;53000;45.182;5.736;2022-08-05T09:24:15;13.50;13.25;12.00
66195;PMS7003;53000;45.182;5.736;2022-08-05T09:26:41;14.75;14.75;12.75
66195;PMS7003;53000;45.182;5.736;2022-08-05T09:29:12;12.50;12.50;10.50
66195;PMS7003;53000;45.182;5.736;2022-08-05T09:31:38;5.25;5.25;3.00
66195;PMS7003;53000;45.182;5.736;2022-08-05T09:34:04;14.25;13.75;11.75
66195;PMS7003;53000;45.182;5.736;2022-08-05T09:36:51;14.50;12.75;11.50
66195;PMS7003;53000;45.182;5.736;2022-08-05T09:39:17;14.50;13.00;11.00
66195;PMS7003;53000;45.182;5.736;2022-08-05T09:42:03;13.25;12.75;11.00
66195;PMS7003;53000;45.182;5.736;2022-08-05T09:44:40;12.00;12.00;10.25
66195;PMS7003;53000;45.182;5.736;2022-08-05T09:47:09;12.00;11.75;8.50
66195;PMS7003;53000;45.182;5.736;2022-08-05T09:49:41;12.75;12.75;11.00
66195;PMS7003;53000;45.182;5.736;2022-08-05T09:52:33;12.00;11.50;10.50
66195;PMS7003;53000;45.182;5.736;2022-08-05T09:55:03;12.50;12.50;10.75
66195;PMS7003;53000;45.182;5.736;2022-08-05T09:57:31;14.25;14.25;12.00
66195;PMS7003;53000;45.182;5.736;2022-08-05T10:00:17;12.75;12.50;11.00
66195;PMS7003;53000;45.182;5.736;2022-08-05T10:05:13;12.25;12.00;9.25
66195;PMS7003;53000;45.182;5.736;2022-08-05T10:07:52;13.25;13.00;11.00
66195;PMS7003;53000;45.182;5.736;2022-08-05T10:10:22;13.25;13.00;11.00
66195;PMS7003;53000;45.182;5.736;2022-08-05T10:12:54;10.50;10.50;9.50
66195;PMS7003;53000;45.182;5.736;2022-08-05T10:20:30;13.25;11.00;9.50
66195;PMS7003;53000;45.182;5.736;2022-08-05T10:22:56;11.75;11.75;10.25
66195;PMS7003;53000;45.182;5.736;2022-08-05T10:25:22;12.75;11.25;10.25
66195;PMS7003;53000;45.182;5.736;2022-08-05T10:27:47;13.00;12.00;10.50
66195;PMS7003;53000;45.182;5.736;2022-08-05T10:30:13;12.25;12.25;10.75
66195;PMS7003;53000;45.182;5.736;2022-08-05T10:32:39;14.75;13.00;10.75
66195;PMS7003;53000;45.182;5.736;2022-08-05T10:35:05;11.50;11.50;10.50
66195;PMS7003;53000;45.182;5.736;2022-08-05T10:37:31;13.00;12.75;10.75
66195;PMS7003;53000;45.182;5.736;2022-08-05T10:39:57;13.25;13.25;11.00
66195;PMS7003;53000;45.182;5.736;2022-08-05T10:42:28;12.00;12.00;10.75
66195;PMS7003;53000;45.182;5.736;2022-08-05T10:45:00;13.00;13.00;11.00
66195;PMS7003;53000;45.182;5.736;2022-08-05T10:47:31;13.75;13.25;10.00
66195;PMS7003;53000;45.182;5.736;2022-08-05T10:50:10;13.25;12.25;10.50
66195;PMS7003;53000;45.182;5.736;2022-08-05T10:55:10;15.50;14.00;12.25
66195;PMS7003;53000;45.182;5.736;2022-08-05T10:57:37;13.75;10.75;9.50
66195;PMS7003;53000;45.182;5.736;2022-08-05T11:00:15;11.50;11.50;10.00
66195;PMS7003;53000;45.182;5.736;2022-08-05T11:05:30;10.00;10.00;9.00
66195;PMS7003;53000;45.182;5.736;2022-08-05T11:07:58;13.00;11.75;10.00
66195;PMS7003;53000;45.182;5.736;2022-08-05T11:10:28;9.50;9.50;8.50
66195;PMS7003;53000;45.182;5.736;2022-08-05T11:12:57;10.75;10.75;9.00
66195;PMS7003;53000;45.182;5.736;2022-08-05T11:18:21;11.00;9.75;8.50
66195;PMS7003;53000;45.182;5.736;2022-08-05T11:20:50;9.00;9.00;8.00
66195;PMS7003;53000;45.182;5.736;2022-08-05T11:23:30;9.50;9.00;7.50
66195;PMS7003;53000;45.182;5.736;2022-08-05T11:33:28;6.50;6.50;6.50
66195;PMS7003;53000;45.182;5.736;2022-08-05T11:35:57;8.25;8.00;6.75
66195;PMS7003;53000;45.182;5.736;2022-08-05T11:43:53;6.25;6.25;4.25
66195;PMS7003;53000;45.182;5.736;2022-08-05T11:46:27;9.25;9.00;8.00
66195;PMS7003;53000;45.182;5.736;2022-08-05T11:48:54;7.75;7.75;7.00
66195;PMS7003;53000;45.182;5.736;2022-08-05T11:51:20;8.50;8.00;7.00
66195;PMS7003;53000;45.182;5.736;2022-08-05T11:53:46;9.75;9.75;7.25
66195;PMS7003;53000;45.182;5.736;2022-08-05T11:56:13;9.00;8.75;7.75
66195;PMS7003;53000;45.182;5.736;2022-08-05T11:58:39;10.25;9.00;7.25
66195;PMS7003;53000;45.182;5.736;2022-08-05T12:01:11;10.00;10.00;8.50
66195;PMS7003;53000;45.182;5.736;2022-08-05T12:06:22;7.00;7.00;5.75
66195;PMS7003;53000;45.182;5.736;2022-08-05T12:08:53;9.00;9.00;7.75
66195;PMS7003;53000;45.182;5.736;2022-08-05T12:11:21;10.00;9.00;7.25
66195;PMS7003;53000;45.182;5.736;2022-08-05T12:13:56;8.25;8.25;6.75
66195;PMS7003;53000;45.182;5.736;2022-08-05T12:16:33;8.75;8.75;7.25
66195;PMS7003;53000;45.182;5.736;2022-08-05T12:19:00;8.50;7.75;7.50
66195;PMS7003;53000;45.182;5.736;2022-08-05T12:21:28;11.25;10.00;8.25
66195;PMS7003;53000;45.182;5.736;2022-08-05T12:23:58;9.00;9.00;8.00
66195;PMS7003;53000;45.182;5.736;2022-08-05T12:26:30;9.75;8.75;6.50
66195;PMS7003;53000;45.182;5.736;2022-08-05T12:28:56;8.75;8.75;7.00
66195;PMS7003;53000;45.182;5.736;2022-08-05T12:31:22;7.75;7.75;7.00
66195;PMS7003;53000;45.182;5.736;2022-08-05T12:33:47;9.00;9.00;8.00
66195;PMS7003;53000;45.182;5.736;2022-08-05T12:36:13;8.50;7.25;6.25
66195;PMS7003;53000;45.182;5.736;2022-08-05T12:38:39;9.25;9.25;7.75
66195;PMS7003;53000;45.182;5.736;2022-08-05T12:41:10;10.00;10.00;9.50
66195;PMS7003;53000;45.182;5.736;2022-08-05T12:43:53;6.75;6.75;5.75
66195;PMS7003;53000;45.182;5.736;2022-08-05T12:46:26;7.00;7.00;6.00
66195;PMS7003;53000;45.182;5.736;2022-08-05T12:51:31;8.00;8.00;7.25
66195;PMS7003;53000;45.182;5.736;2022-08-05T12:54:07;8.25;8.25;7.25
66195;PMS7003;53000;45.182;5.736;2022-08-05T12:56:33;8.75;8.50;7.00
66195;PMS7003;53000;45.182;5.736;2022-08-05T12:59:16;10.25;9.50;8.50
66195;PMS7003;53000;45.182;5.736;2022-08-05T13:01:44;10.75;9.75;6.75
66195;PMS7003;53000;45.182;5.736;2022-08-05T13:04:19;9.25;9.25;8.25
66195;PMS7003;53000;45.182;5.736;2022-08-05T13:06:45;8.25;8.00;7.25
66195;PMS7003;53000;45.182;5.736;2022-08-05T13:09:12;10.00;9.00;7.75
66195;PMS7003;53000;45.182;5.736;2022-08-05T13:11:39;9.25;8.75;7.75
66195;PMS7003;53000;45.182;5.736;2022-08-05T13:14:16;8.25;8.25;7.50
66195;PMS7003;53000;45.182;5.736;2022-08-05T13:16:49;10.00;10.00;8.00
66195;PMS7003;53000;45.182;5.736;2022-08-05T13:19:15;8.00;8.00;6.25
66195;PMS7003;53000;45.182;5.736;2022-08-05T13:21:40;9.50;9.50;8.50
66195;PMS7003;53000;45.182;5.736;2022-08-05T13:24:06;9.50;9.00;7.00
66195;PMS7003;53000;45.182;5.736;2022-08-05T13:26:32;9.25;9.25;8.25
66195;PMS7003;53000;45.182;5.736;2022-08-05T13:28:57;8.00;7.00;6.25
66195;PMS7003;53000;45.182;5.736;2022-08-05T13:31:23;7.50;7.00;6.50
66195;PMS7003;53000;45.182;5.736;2022-08-05T13:33:48;6.75;6.00;5.50
66195;PMS7003;53000;45.182;5.736;2022-08-05T13:36:14;7.75;7.75;6.75
66195;PMS7003;53000;45.182;5.736;2022-08-05T13:38:39;7.50;7.50;6.75
66195;PMS7003;53000;45.182;5.736;2022-08-05T13:41:04;9.25;8.25;7.25
66195;PMS7003;53000;45.182;5.736;2022-08-05T13:43:30;9.25;9.25;8.00
66195;PMS7003;53000;45.182;5.736;2022-08-05T13:45:55;9.50;7.75;7.00
66195;PMS7003;53000;45.182;5.736;2022-08-05T13:48:21;6.75;6.75;6.00
66195;PMS7003;53000;45.182;5.736;2022-08-05T13:50:46;9.50;9.25;8.00
66195;PMS7003;53000;45.182;5.736;2022-08-05T13:53:11;9.75;9.50;8.00
66195;PMS7003;53000;45.182;5.736;2022-08-05T13:55:37;8.50;8.50;7.00
66195;PMS7003;53000;45.182;5.736;2022-08-05T13:58:02;9.75;8.50;7.75
66195;PMS7003;53000;45.182;5.736;2022-08-05T14:00:28;9.50;8.75;7.50
66195;PMS7003;53000;45.182;5.736;2022-08-05T14:02:57;8.25;8.25;8.00
66195;PMS7003;53000;45.182;5.736;2022-08-05T14:05:22;9.00;9.00;7.00
66195;PMS7003;53000;45.182;5.736;2022-08-05T14:07:47;9.00;9.00;7.75
66195;PMS7003;53000;45.182;5.736;2022-08-05T14:10:14;9.75;9.75;8.50
66195;PMS7003;53000;45.182;5.736;2022-08-05T14:12:41;9.00;9.00;7.75
66195;PMS7003;53000;45.182;5.736;2022-08-05T14:15:07;9.75;9.50;8.25
66195;PMS7003;53000;45.182;5.736;2022-08-05T14:17:33;10.50;10.50;8.50
66195;PMS7003;53000;45.182;5.736;2022-08-05T14:19:59;11.75;10.50;9.50
66195;PMS7003;53000;45.182;5.736;2022-08-05T14:22:24;11.00;9.25;8.00
66195;PMS7003;53000;45.182;5.736;2022-08-05T14:24:49;9.50;9.50;8.50
66195;PMS7003;53000;45.182;5.736;2022-08-05T14:27:16;9.50;9.50;9.00
66195;PMS7003;53000;45.182;5.736;2022-08-05T14:29:41;10.75;10.75;8.75
66195;PMS7003;53000;45.182;5.736;2022-08-05T14:32:06;9.00;9.00;7.00
66195;PMS7003;53000;45.182;5.736;2022-08-05T14:34:32;10.50;10.50;8.50
66195;PMS7003;53000;45.182;5.736;2022-08-05T14:36:58;10.75;9.00;6.00
66195;PMS7003;53000;45.182;5.736;2022-08-05T14:39:23;8.75;8.75;8.00